sensor_id;sensor_type;location;lat;lon;timestamp;P1;durP1;ratioP1;P2;durP2;ratioP2
66923;SDS011;53835;47.984;7.844;2022-08-30T00:00:10;5.40;;;4.90;;
66923;SDS011;53835;47.984;7.844;2022-08-30T00:02:53;6.78;;;5.03;;
66923;SDS011;53835;47.984;7.844;2022-08-30T00:05:20;5.62;;;4.75;;
66923;SDS011;53835;47.984;7.844;2022-08-30T00:07:47;6.78;;;5.17;;
66923;SDS011;53835;47.984;7.844;2022-08-30T00:10:15;6.37;;;4.95;;
66923;SDS011;53835;47.984;7.844;2022-08-30T00:12:42;6.08;;;4.92;;
66923;SDS011;53835;47.984;7.844;2022-08-30T00:15:10;5.40;;;4.90;;
66923;SDS011;53835;47.984;7.844;2022-08-30T00:17:38;8.38;;;5.33;;
66923;SDS011;53835;47.984;7.844;2022-08-30T00:20:07;5.72;;;5.12;;
66923;SDS011;53835;47.984;7.844;2022-08-30T00:22:35;7.28;;;4.92;;
66923;SDS011;53835;47.984;7.844;2022-08-30T00:25:03;8.43;;;5.25;;
66923;SDS011;53835;47.984;7.844;2022-08-30T00:27:30;7.25;;;4.72;;
66923;SDS011;53835;47.984;7.844;2022-08-30T00:29:58;8.60;;;4.95;;
66923;SDS011;53835;47.984;7.844;2022-08-30T00:32:25;6.47;;;4.67;;
66923;SDS011;53835;47.984;7.844;2022-08-30T00:34:53;6.97;;;5.10;;
66923;SDS011;53835;47.984;7.844;2022-08-30T00:37:20;5.67;;;5.08;;
66923;SDS011;53835;47.984;7.844;2022-08-30T00:39:48;6.97;;;5.05;;
66923;SDS011;53835;47.984;7.844;2022-08-30T00:42:16;6.92;;;4.80;;
66923;SDS011;53835;47.984;7.844;2022-08-30T00:44:43;7.22;;;5.53;;
66923;SDS011;53835;47.984;7.844;2022-08-30T00:47:11;9.63;;;6.10;;
66923;SDS011;53835;47.984;7.844;2022-08-30T00:49:39;5.78;;;5.00;;
66923;SDS011;53835;47.984;7.844;2022-08-30T00:52:08;6.60;;;5.33;;
66923;SDS011;53835;47.984;7.844;2022-08-30T00:54:37;8.45;;;5.05;;
66923;SDS011;53835;47.984;7.844;2022-08-30T00:57:05;6.12;;;5.33;;
66923;SDS011;53835;47.984;7.844;2022-08-30T00:59:33;7.97;;;5.42;;
66923;SDS011;53835;47.984;7.844;2022-08-30T01:02:00;8.68;;;5.12;;
66923;SDS011;53835;47.984;7.844;2022-08-30T01:04:28;8.00;;;4.95;;
66923;SDS011;53835;47.984;7.844;2022-08-30T01:06:56;7.97;;;5.22;;
66923;SDS011;53835;47.984;7.844;2022-08-30T01:09:23;5.78;;;5.20;;
66923;SDS011;53835;47.984;7.844;2022-08-30T01:11:50;6.28;;;5.50;;
66923;SDS011;53835;47.984;7.844;2022-08-30T01:14:18;11.38;;;5.45;;
66923;SDS011;53835;47.984;7.844;2022-08-30T01:16:47;6.20;;;4.78;;
66923;SDS011;53835;47.984;7.844;2022-08-30T01:19:28;8.38;;;5.40;;
66923;SDS011;53835;47.984;7.844;2022-08-30T01:21:56;5.53;;;4.87;;
66923;SDS011;53835;47.984;7.844;2022-08-30T01:24:21;6.92;;;5.05;;
66923;SDS011;53835;47.984;7.844;2022-08-30T01:26:49;7.03;;;5.22;;
66923;SDS011;53835;47.984;7.844;2022-08-30T01:29:17;6.90;;;5.20;;
66923;SDS011;53835;47.984;7.844;2022-08-30T01:31:45;5.40;;;4.90;;
66923;SDS011;53835;47.984;7.844;2022-08-30T01:34:12;5.58;;;5.10;;
66923;SDS011;53835;47.984;7.844;2022-08-30T01:36:40;6.22;;;5.60;;
66923;SDS011;53835;47.984;7.844;2022-08-30T01:39:09;7.58;;;5.58;;
66923;SDS011;53835;47.984;7.844;2022-08-30T01:41:37;7.35;;;5.12;;
66923;SDS011;53835;47.984;7.844;2022-08-30T01:44:06;5.67;;;5.05;;
66923;SDS011;53835;47.984;7.844;2022-08-30T01:46:35;6.53;;;5.15;;
66923;SDS011;53835;47.984;7.844;2022-08-30T01:49:04;8.37;;;5.03;;
66923;SDS011;53835;47.984;7.844;2022-08-30T01:51:31;6.87;;;5.58;;
66923;SDS011;53835;47.984;7.844;2022-08-30T01:53:58;6.45;;;5.30;;
66923;SDS011;53835;47.984;7.844;2022-08-30T01:56:26;6.67;;;5.40;;
66923;SDS011;53835;47.984;7.844;2022-08-30T01:58:54;7.95;;;5.20;;
66923;SDS011;53835;47.984;7.844;2022-08-30T02:01:22;7.07;;;5.37;;
66923;SDS011;53835;47.984;7.844;2022-08-30T02:03:52;7.95;;;5.35;;
66923;SDS011;53835;47.984;7.844;2022-08-30T02:06:20;8.47;;;5.40;;
66923;SDS011;53835;47.984;7.844;2022-08-30T02:08:48;8.80;;;5.53;;
66923;SDS011;53835;47.984;7.844;2022-08-30T02:11:15;6.22;;;5.42;;
66923;SDS011;53835;47.984;7.844;2022-08-30T02:13:43;6.87;;;5.33;;
66923;SDS011;53835;47.984;7.844;2022-08-30T02:16:13;8.75;;;5.33;;
66923;SDS011;53835;47.984;7.844;2022-08-30T02:18:41;9.10;;;5.53;;
66923;SDS011;53835;47.984;7.844;2022-08-30T02:21:08;6.50;;;5.80;;
66923;SDS011;53835;47.984;7.844;2022-08-30T02:23:35;5.95;;;5.28;;
66923;SDS011;53835;47.984;7.844;2022-08-30T02:26:03;8.95;;;5.80;;
66923;SDS011;53835;47.984;7.844;2022-08-30T02:28:31;9.40;;;5.33;;
66923;SDS011;53835;47.984;7.844;2022-08-30T02:30:58;8.63;;;5.83;;
66923;SDS011;53835;47.984;7.844;2022-08-30T02:33:26;7.42;;;5.55;;
66923;SDS011;53835;47.984;7.844;2022-08-30T02:35:53;7.62;;;5.45;;
66923;SDS011;53835;47.984;7.844;2022-08-30T02:38:22;6.70;;;5.50;;
66923;SDS011;53835;47.984;7.844;2022-08-30T02:40:50;8.40;;;5.50;;
66923;SDS011;53835;47.984;7.844;2022-08-30T02:43:18;9.30;;;5.53;;
66923;SDS011;53835;47.984;7.844;2022-08-30T02:45:45;6.03;;;5.50;;
66923;SDS011;53835;47.984;7.844;2022-08-30T02:48:12;6.05;;;5.42;;
66923;SDS011;53835;47.984;7.844;2022-08-30T02:50:44;7.33;;;5.90;;
66923;SDS011;53835;47.984;7.844;2022-08-30T02:53:09;6.40;;;5.47;;
66923;SDS011;53835;47.984;7.844;2022-08-30T02:55:36;6.23;;;5.37;;
66923;SDS011;53835;47.984;7.844;2022-08-30T02:58:03;6.22;;;5.62;;
66923;SDS011;53835;47.984;7.844;2022-08-30T03:00:31;6.73;;;5.30;;
66923;SDS011;53835;47.984;7.844;2022-08-30T03:02:59;10.57;;;6.27;;
66923;SDS011;53835;47.984;7.844;2022-08-30T03:05:28;7.50;;;5.50;;
66923;SDS011;53835;47.984;7.844;2022-08-30T03:07:56;7.23;;;5.57;;
66923;SDS011;53835;47.984;7.844;2022-08-30T03:10:23;6.30;;;5.10;;
66923;SDS011;53835;47.984;7.844;2022-08-30T03:12:50;6.47;;;5.40;;
66923;SDS011;53835;47.984;7.844;2022-08-30T03:15:18;6.27;;;5.63;;
66923;SDS011;53835;47.984;7.844;2022-08-30T03:17:45;7.83;;;5.70;;
66923;SDS011;53835;47.984;7.844;2022-08-30T03:20:12;6.13;;;5.53;;
66923;SDS011;53835;47.984;7.844;2022-08-30T03:22:39;8.17;;;5.50;;
66923;SDS011;53835;47.984;7.844;2022-08-30T03:25:07;6.00;;;5.40;;
66923;SDS011;53835;47.984;7.844;2022-08-30T03:27:34;6.53;;;5.30;;
66923;SDS011;53835;47.984;7.844;2022-08-30T03:30:02;7.00;;;5.73;;
66923;SDS011;53835;47.984;7.844;2022-08-30T03:32:29;6.77;;;5.93;;
66923;SDS011;53835;47.984;7.844;2022-08-30T03:34:57;6.80;;;6.03;;
66923;SDS011;53835;47.984;7.844;2022-08-30T03:37:25;8.37;;;6.10;;
66923;SDS011;53835;47.984;7.844;2022-08-30T03:39:53;7.73;;;5.60;;
66923;SDS011;53835;47.984;7.844;2022-08-30T03:42:20;9.63;;;5.77;;
66923;SDS011;53835;47.984;7.844;2022-08-30T03:44:48;6.17;;;5.67;;
66923;SDS011;53835;47.984;7.844;2022-08-30T03:47:15;6.60;;;5.60;;
66923;SDS011;53835;47.984;7.844;2022-08-30T03:49:42;8.13;;;5.67;;
66923;SDS011;53835;47.984;7.844;2022-08-30T03:52:09;8.57;;;5.40;;
66923;SDS011;53835;47.984;7.844;2022-08-30T03:54:37;8.07;;;6.10;;
66923;SDS011;53835;47.984;7.844;2022-08-30T03:57:05;5.83;;;5.30;;
66923;SDS011;53835;47.984;7.844;2022-08-30T03:59:33;6.37;;;5.77;;
66923;SDS011;53835;47.984;7.844;2022-08-30T04:02:00;5.63;;;5.13;;
66923;SDS011;53835;47.984;7.844;2022-08-30T04:04:28;5.93;;;5.30;;
66923;SDS011;53835;47.984;7.844;2022-08-30T04:06:55;6.13;;;5.63;;
66923;SDS011;53835;47.984;7.844;2022-08-30T04:09:22;7.13;;;5.17;;
66923;SDS011;53835;47.984;7.844;2022-08-30T04:11:50;6.73;;;6.00;;
66923;SDS011;53835;47.984;7.844;2022-08-30T04:14:17;6.30;;;5.60;;
66923;SDS011;53835;47.984;7.844;2022-08-30T04:16:44;6.73;;;5.57;;
66923;SDS011;53835;47.984;7.844;2022-08-30T04:19:12;8.70;;;5.77;;
66923;SDS011;53835;47.984;7.844;2022-08-30T04:21:39;6.57;;;5.67;;
66923;SDS011;53835;47.984;7.844;2022-08-30T04:24:06;10.63;;;6.80;;
66923;SDS011;53835;47.984;7.844;2022-08-30T04:26:34;8.23;;;6.20;;
66923;SDS011;53835;47.984;7.844;2022-08-30T04:29:01;7.10;;;5.90;;
66923;SDS011;53835;47.984;7.844;2022-08-30T04:31:28;7.50;;;5.80;;
66923;SDS011;53835;47.984;7.844;2022-08-30T04:33:56;6.53;;;5.93;;
66923;SDS011;53835;47.984;7.844;2022-08-30T04:36:23;8.03;;;5.70;;
66923;SDS011;53835;47.984;7.844;2022-08-30T04:38:51;6.57;;;5.67;;
66923;SDS011;53835;47.984;7.844;2022-08-30T04:41:18;6.90;;;5.93;;
66923;SDS011;53835;47.984;7.844;2022-08-30T04:43:47;8.37;;;6.50;;
66923;SDS011;53835;47.984;7.844;2022-08-30T04:46:16;6.40;;;5.80;;
66923;SDS011;53835;47.984;7.844;2022-08-30T04:48:44;6.77;;;5.73;;
66923;SDS011;53835;47.984;7.844;2022-08-30T04:51:12;7.63;;;5.90;;
66923;SDS011;53835;47.984;7.844;2022-08-30T04:53:40;6.47;;;5.87;;
66923;SDS011;53835;47.984;7.844;2022-08-30T04:56:08;6.17;;;5.60;;
66923;SDS011;53835;47.984;7.844;2022-08-30T04:58:36;6.70;;;6.00;;
66923;SDS011;53835;47.984;7.844;2022-08-30T05:01:03;6.60;;;6.00;;
66923;SDS011;53835;47.984;7.844;2022-08-30T05:03:30;7.33;;;5.80;;
66923;SDS011;53835;47.984;7.844;2022-08-30T05:05:58;6.70;;;6.10;;
66923;SDS011;53835;47.984;7.844;2022-08-30T05:08:25;9.23;;;5.73;;
66923;SDS011;53835;47.984;7.844;2022-08-30T05:10:52;6.47;;;5.73;;
66923;SDS011;53835;47.984;7.844;2022-08-30T05:13:20;7.53;;;6.53;;
66923;SDS011;53835;47.984;7.844;2022-08-30T05:15:47;7.13;;;6.40;;
66923;SDS011;53835;47.984;7.844;2022-08-30T05:18:15;6.40;;;5.80;;
66923;SDS011;53835;47.984;7.844;2022-08-30T05:20:42;9.83;;;6.47;;
66923;SDS011;53835;47.984;7.844;2022-08-30T05:23:09;7.53;;;5.80;;
66923;SDS011;53835;47.984;7.844;2022-08-30T05:25:38;7.63;;;5.53;;
66923;SDS011;53835;47.984;7.844;2022-08-30T05:28:06;6.43;;;5.63;;
66923;SDS011;53835;47.984;7.844;2022-08-30T05:30:34;10.63;;;5.63;;
66923;SDS011;53835;47.984;7.844;2022-08-30T05:33:02;5.87;;;5.13;;
66923;SDS011;53835;47.984;7.844;2022-08-30T05:35:30;6.57;;;5.40;;
66923;SDS011;53835;47.984;7.844;2022-08-30T05:37:57;9.07;;;5.40;;
66923;SDS011;53835;47.984;7.844;2022-08-30T05:40:25;7.93;;;5.50;;
66923;SDS011;53835;47.984;7.844;2022-08-30T05:42:52;5.83;;;5.23;;
66923;SDS011;53835;47.984;7.844;2022-08-30T05:45:19;6.27;;;5.67;;
66923;SDS011;53835;47.984;7.844;2022-08-30T05:47:47;7.95;;;5.25;;
66923;SDS011;53835;47.984;7.844;2022-08-30T05:50:14;7.90;;;4.95;;
66923;SDS011;53835;47.984;7.844;2022-08-30T05:52:41;6.03;;;5.30;;
66923;SDS011;53835;47.984;7.844;2022-08-30T05:55:10;7.28;;;5.47;;
66923;SDS011;53835;47.984;7.844;2022-08-30T05:57:38;9.65;;;5.30;;
66923;SDS011;53835;47.984;7.844;2022-08-30T06:00:07;8.38;;;5.30;;
66923;SDS011;53835;47.984;7.844;2022-08-30T06:02:35;8.63;;;5.60;;
66923;SDS011;53835;47.984;7.844;2022-08-30T06:05:02;6.00;;;5.50;;
66923;SDS011;53835;47.984;7.844;2022-08-30T06:07:30;5.60;;;5.03;;
66923;SDS011;53835;47.984;7.844;2022-08-30T06:09:57;6.67;;;5.67;;
66923;SDS011;53835;47.984;7.844;2022-08-30T06:12:25;7.40;;;5.87;;
66923;SDS011;53835;47.984;7.844;2022-08-30T06:14:52;7.22;;;5.35;;
66923;SDS011;53835;47.984;7.844;2022-08-30T06:17:19;6.10;;;5.33;;
66923;SDS011;53835;47.984;7.844;2022-08-30T06:19:46;6.33;;;5.83;;
66923;SDS011;53835;47.984;7.844;2022-08-30T06:22:14;6.60;;;5.75;;
66923;SDS011;53835;47.984;7.844;2022-08-30T06:24:41;6.70;;;5.13;;
66923;SDS011;53835;47.984;7.844;2022-08-30T06:27:08;7.83;;;5.60;;
66923;SDS011;53835;47.984;7.844;2022-08-30T06:29:36;6.25;;;5.65;;
66923;SDS011;53835;47.984;7.844;2022-08-30T06:32:03;6.37;;;5.73;;
66923;SDS011;53835;47.984;7.844;2022-08-30T06:34:30;6.60;;;5.87;;
66923;SDS011;53835;47.984;7.844;2022-08-30T06:36:58;6.05;;;5.55;;
66923;SDS011;53835;47.984;7.844;2022-08-30T06:39:25;7.97;;;6.50;;
66923;SDS011;53835;47.984;7.844;2022-08-30T06:41:52;7.33;;;6.27;;
66923;SDS011;53835;47.984;7.844;2022-08-30T06:44:20;7.75;;;6.22;;
66923;SDS011;53835;47.984;7.844;2022-08-30T06:46:48;10.18;;;6.15;;
66923;SDS011;53835;47.984;7.844;2022-08-30T06:49:15;6.72;;;6.00;;
66923;SDS011;53835;47.984;7.844;2022-08-30T06:51:42;6.42;;;5.92;;
66923;SDS011;53835;47.984;7.844;2022-08-30T06:54:09;7.92;;;6.55;;
66923;SDS011;53835;47.984;7.844;2022-08-30T06:56:37;9.08;;;6.33;;
66923;SDS011;53835;47.984;7.844;2022-08-30T06:59:04;7.97;;;6.35;;
66923;SDS011;53835;47.984;7.844;2022-08-30T07:01:32;9.00;;;6.75;;
66923;SDS011;53835;47.984;7.844;2022-08-30T07:03:59;6.53;;;5.80;;
66923;SDS011;53835;47.984;7.844;2022-08-30T07:06:27;10.90;;;7.08;;
66923;SDS011;53835;47.984;7.844;2022-08-30T07:08:54;9.63;;;6.35;;
66923;SDS011;53835;47.984;7.844;2022-08-30T07:11:35;8.53;;;6.25;;
66923;SDS011;53835;47.984;7.844;2022-08-30T07:14:04;10.13;;;6.55;;
66923;SDS011;53835;47.984;7.844;2022-08-30T07:16:32;7.33;;;6.62;;
66923;SDS011;53835;47.984;7.844;2022-08-30T07:19:00;13.45;;;7.40;;
66923;SDS011;53835;47.984;7.844;2022-08-30T07:21:30;11.30;;;7.30;;
66923;SDS011;53835;47.984;7.844;2022-08-30T07:23:57;12.98;;;8.25;;
66923;SDS011;53835;47.984;7.844;2022-08-30T07:26:26;11.25;;;6.85;;
66923;SDS011;53835;47.984;7.844;2022-08-30T07:28:54;13.95;;;7.08;;
66923;SDS011;53835;47.984;7.844;2022-08-30T07:31:21;9.68;;;6.97;;
66923;SDS011;53835;47.984;7.844;2022-08-30T07:33:49;11.88;;;6.60;;
66923;SDS011;53835;47.984;7.844;2022-08-30T07:36:17;11.08;;;6.90;;
66923;SDS011;53835;47.984;7.844;2022-08-30T07:38:47;13.72;;;7.35;;
66923;SDS011;53835;47.984;7.844;2022-08-30T07:41:20;9.63;;;7.25;;
66923;SDS011;53835;47.984;7.844;2022-08-30T07:43:45;8.70;;;6.75;;
66923;SDS011;53835;47.984;7.844;2022-08-30T07:46:12;8.43;;;6.70;;
66923;SDS011;53835;47.984;7.844;2022-08-30T07:48:40;8.65;;;6.17;;
66923;SDS011;53835;47.984;7.844;2022-08-30T07:51:08;8.93;;;6.22;;
66923;SDS011;53835;47.984;7.844;2022-08-30T07:53:35;12.45;;;6.42;;
66923;SDS011;53835;47.984;7.844;2022-08-30T07:56:03;8.05;;;5.67;;
66923;SDS011;53835;47.984;7.844;2022-08-30T07:58:30;7.17;;;5.97;;
66923;SDS011;53835;47.984;7.844;2022-08-30T08:00:58;7.95;;;6.08;;
66923;SDS011;53835;47.984;7.844;2022-08-30T08:03:25;14.98;;;6.22;;
66923;SDS011;53835;47.984;7.844;2022-08-30T08:05:52;7.12;;;5.62;;
66923;SDS011;53835;47.984;7.844;2022-08-30T08:08:21;9.00;;;6.37;;
66923;SDS011;53835;47.984;7.844;2022-08-30T08:10:48;7.05;;;5.67;;
66923;SDS011;53835;47.984;7.844;2022-08-30T08:13:15;6.97;;;6.03;;
66923;SDS011;53835;47.984;7.844;2022-08-30T08:15:43;6.53;;;5.85;;
66923;SDS011;53835;47.984;7.844;2022-08-30T08:18:10;10.78;;;5.97;;
66923;SDS011;53835;47.984;7.844;2022-08-30T08:20:38;7.45;;;5.90;;
66923;SDS011;53835;47.984;7.844;2022-08-30T08:23:05;6.78;;;5.75;;
66923;SDS011;53835;47.984;7.844;2022-08-30T08:25:36;5.90;;;5.40;;
66923;SDS011;53835;47.984;7.844;2022-08-30T08:28:02;6.20;;;5.53;;
66923;SDS011;53835;47.984;7.844;2022-08-30T08:30:31;6.80;;;5.72;;
66923;SDS011;53835;47.984;7.844;2022-08-30T08:32:58;6.97;;;5.58;;
66923;SDS011;53835;47.984;7.844;2022-08-30T08:35:25;6.20;;;5.62;;
66923;SDS011;53835;47.984;7.844;2022-08-30T08:37:53;6.97;;;5.30;;
66923;SDS011;53835;47.984;7.844;2022-08-30T08:40:20;6.15;;;5.53;;
66923;SDS011;53835;47.984;7.844;2022-08-30T08:42:51;6.05;;;5.50;;
66923;SDS011;53835;47.984;7.844;2022-08-30T08:45:18;8.13;;;5.50;;
66923;SDS011;53835;47.984;7.844;2022-08-30T08:47:55;5.80;;;5.20;;
66923;SDS011;53835;47.984;7.844;2022-08-30T08:50:23;8.08;;;5.53;;
66923;SDS011;53835;47.984;7.844;2022-08-30T08:52:54;5.83;;;4.75;;
66923;SDS011;53835;47.984;7.844;2022-08-30T08:55:42;8.98;;;5.30;;
66923;SDS011;53835;47.984;7.844;2022-08-30T08:58:12;8.33;;;5.12;;
66923;SDS011;53835;47.984;7.844;2022-08-30T09:00:38;5.97;;;5.40;;
66923;SDS011;53835;47.984;7.844;2022-08-30T09:03:05;7.45;;;5.00;;
66923;SDS011;53835;47.984;7.844;2022-08-30T09:05:34;5.65;;;5.15;;
66923;SDS011;53835;47.984;7.844;2022-08-30T09:08:07;7.22;;;5.45;;
66923;SDS011;53835;47.984;7.844;2022-08-30T09:10:34;5.65;;;5.08;;
66923;SDS011;53835;47.984;7.844;2022-08-30T09:13:01;7.35;;;4.65;;
66923;SDS011;53835;47.984;7.844;2022-08-30T09:15:30;6.97;;;5.17;;
66923;SDS011;53835;47.984;7.844;2022-08-30T09:18:03;10.65;;;5.25;;
66923;SDS011;53835;47.984;7.844;2022-08-30T09:20:36;5.75;;;5.10;;
66923;SDS011;53835;47.984;7.844;2022-08-30T09:23:10;6.60;;;4.83;;
66923;SDS011;53835;47.984;7.844;2022-08-30T09:25:28;6.60;;;4.90;;
66923;SDS011;53835;47.984;7.844;2022-08-30T09:28:10;6.37;;;5.10;;
66923;SDS011;53835;47.984;7.844;2022-08-30T09:30:37;5.58;;;4.80;;
66923;SDS011;53835;47.984;7.844;2022-08-30T09:33:05;5.28;;;4.50;;
66923;SDS011;53835;47.984;7.844;2022-08-30T09:35:37;5.40;;;4.50;;
66923;SDS011;53835;47.984;7.844;2022-08-30T09:40:50;5.35;;;4.47;;
66923;SDS011;53835;47.984;7.844;2022-08-30T09:45:45;9.08;;;4.67;;
66923;SDS011;53835;47.984;7.844;2022-08-30T09:48:20;5.72;;;4.45;;
66923;SDS011;53835;47.984;7.844;2022-08-30T09:53:34;5.47;;;4.90;;
66923;SDS011;53835;47.984;7.844;2022-08-30T10:09:21;4.92;;;4.33;;
66923;SDS011;53835;47.984;7.844;2022-08-30T10:17:01;5.10;;;4.50;;
66923;SDS011;53835;47.984;7.844;2022-08-30T10:22:08;5.80;;;4.55;;
66923;SDS011;53835;47.984;7.844;2022-08-30T10:24:37;5.53;;;4.65;;
66923;SDS011;53835;47.984;7.844;2022-08-30T10:27:01;7.62;;;5.00;;
66923;SDS011;53835;47.984;7.844;2022-08-30T10:29:46;5.50;;;4.83;;
66923;SDS011;53835;47.984;7.844;2022-08-30T10:32:00;6.45;;;4.80;;
66923;SDS011;53835;47.984;7.844;2022-08-30T10:37:03;6.30;;;4.17;;
66923;SDS011;53835;47.984;7.844;2022-08-30T10:39:27;8.65;;;4.70;;
66923;SDS011;53835;47.984;7.844;2022-08-30T10:41:59;7.95;;;4.90;;
66923;SDS011;53835;47.984;7.844;2022-08-30T10:44:32;7.62;;;4.58;;
66923;SDS011;53835;47.984;7.844;2022-08-30T10:47:01;5.15;;;4.62;;
66923;SDS011;53835;47.984;7.844;2022-08-30T10:49:28;6.12;;;4.80;;
66923;SDS011;53835;47.984;7.844;2022-08-30T10:54:49;5.35;;;4.17;;
66923;SDS011;53835;47.984;7.844;2022-08-30T10:57:17;7.58;;;4.20;;
66923;SDS011;53835;47.984;7.844;2022-08-30T10:59:50;5.60;;;4.60;;
66923;SDS011;53835;47.984;7.844;2022-08-30T11:02:19;4.92;;;4.47;;
66923;SDS011;53835;47.984;7.844;2022-08-30T11:10:03;6.35;;;4.10;;
66923;SDS011;53835;47.984;7.844;2022-08-30T11:12:33;5.45;;;3.90;;
66923;SDS011;53835;47.984;7.844;2022-08-30T11:15:23;5.12;;;4.08;;
66923;SDS011;53835;47.984;7.844;2022-08-30T11:17:39;6.45;;;4.17;;
66923;SDS011;53835;47.984;7.844;2022-08-30T11:19:59;7.08;;;4.00;;
66923;SDS011;53835;47.984;7.844;2022-08-30T11:22:28;4.92;;;3.83;;
66923;SDS011;53835;47.984;7.844;2022-08-30T11:27:41;8.90;;;4.47;;
66923;SDS011;53835;47.984;7.844;2022-08-30T11:32:56;4.60;;;3.83;;
66923;SDS011;53835;47.984;7.844;2022-08-30T11:35:39;4.95;;;3.65;;
66923;SDS011;53835;47.984;7.844;2022-08-30T11:44:10;8.75;;;4.20;;
66923;SDS011;53835;47.984;7.844;2022-08-30T11:45:53;5.42;;;3.80;;
66923;SDS011;53835;47.984;7.844;2022-08-30T11:48:38;5.62;;;3.90;;
66923;SDS011;53835;47.984;7.844;2022-08-30T11:51:09;4.65;;;4.15;;
66923;SDS011;53835;47.984;7.844;2022-08-30T11:53:37;5.47;;;4.20;;
66923;SDS011;53835;47.984;7.844;2022-08-30T11:56:09;9.70;;;3.90;;
66923;SDS011;53835;47.984;7.844;2022-08-30T11:58:48;6.00;;;3.83;;
66923;SDS011;53835;47.984;7.844;2022-08-30T12:11:52;5.20;;;3.65;;
66923;SDS011;53835;47.984;7.844;2022-08-30T12:17:00;5.75;;;3.92;;
66923;SDS011;53835;47.984;7.844;2022-08-30T12:19:46;8.00;;;3.92;;
66923;SDS011;53835;47.984;7.844;2022-08-30T12:22:16;5.15;;;4.12;;
66923;SDS011;53835;47.984;7.844;2022-08-30T12:24:45;5.17;;;4.00;;
66923;SDS011;53835;47.984;7.844;2022-08-30T12:27:23;4.35;;;3.95;;
66923;SDS011;53835;47.984;7.844;2022-08-30T12:29:55;5.55;;;3.92;;
66923;SDS011;53835;47.984;7.844;2022-08-30T12:32:19;4.78;;;4.10;;
66923;SDS011;53835;47.984;7.844;2022-08-30T12:34:54;4.83;;;4.20;;
66923;SDS011;53835;47.984;7.844;2022-08-30T12:37:27;12.68;;;4.22;;
66923;SDS011;53835;47.984;7.844;2022-08-30T12:40:10;6.62;;;4.60;;
66923;SDS011;53835;47.984;7.844;2022-08-30T12:42:39;6.87;;;4.37;;
66923;SDS011;53835;47.984;7.844;2022-08-30T12:45:09;5.85;;;4.42;;
66923;SDS011;53835;47.984;7.844;2022-08-30T12:47:50;5.00;;;4.45;;
66923;SDS011;53835;47.984;7.844;2022-08-30T12:50:26;8.35;;;4.50;;
66923;SDS011;53835;47.984;7.844;2022-08-30T12:52:57;6.05;;;4.55;;
66923;SDS011;53835;47.984;7.844;2022-08-30T12:55:26;6.83;;;4.37;;
66923;SDS011;53835;47.984;7.844;2022-08-30T12:58:03;7.37;;;4.28;;
66923;SDS011;53835;47.984;7.844;2022-08-30T13:00:32;6.35;;;3.95;;
66923;SDS011;53835;47.984;7.844;2022-08-30T13:03:00;7.50;;;4.03;;
66923;SDS011;53835;47.984;7.844;2022-08-30T13:05:42;4.50;;;3.90;;
66923;SDS011;53835;47.984;7.844;2022-08-30T13:10:47;4.10;;;3.70;;
66923;SDS011;53835;47.984;7.844;2022-08-30T13:13:06;4.85;;;4.35;;
66923;SDS011;53835;47.984;7.844;2022-08-30T13:15:34;7.72;;;4.28;;
66923;SDS011;53835;47.984;7.844;2022-08-30T13:20:48;5.53;;;3.98;;
66923;SDS011;53835;47.984;7.844;2022-08-30T13:23:22;5.40;;;3.90;;
66923;SDS011;53835;47.984;7.844;2022-08-30T13:25:49;5.08;;;3.92;;
66923;SDS011;53835;47.984;7.844;2022-08-30T13:28:16;6.10;;;4.00;;
66923;SDS011;53835;47.984;7.844;2022-08-30T13:30:45;6.03;;;4.10;;
66923;SDS011;53835;47.984;7.844;2022-08-30T13:33:13;5.47;;;4.03;;
66923;SDS011;53835;47.984;7.844;2022-08-30T13:35:41;6.10;;;4.33;;
66923;SDS011;53835;47.984;7.844;2022-08-30T13:38:09;4.20;;;3.90;;
66923;SDS011;53835;47.984;7.844;2022-08-30T13:40:36;6.37;;;4.05;;
66923;SDS011;53835;47.984;7.844;2022-08-30T13:43:03;5.12;;;4.05;;
66923;SDS011;53835;47.984;7.844;2022-08-30T13:45:30;6.83;;;3.85;;
66923;SDS011;53835;47.984;7.844;2022-08-30T13:47:58;5.90;;;5.40;;
66923;SDS011;53835;47.984;7.844;2022-08-30T13:50:26;4.40;;;3.85;;
66923;SDS011;53835;47.984;7.844;2022-08-30T13:52:53;7.75;;;3.77;;
66923;SDS011;53835;47.984;7.844;2022-08-30T13:55:20;6.75;;;3.98;;
66923;SDS011;53835;47.984;7.844;2022-08-30T13:57:47;5.83;;;3.83;;
66923;SDS011;53835;47.984;7.844;2022-08-30T14:00:16;4.70;;;3.60;;
66923;SDS011;53835;47.984;7.844;2022-08-30T14:02:44;7.60;;;4.00;;
66923;SDS011;53835;47.984;7.844;2022-08-30T14:05:12;8.53;;;3.87;;
66923;SDS011;53835;47.984;7.844;2022-08-30T14:07:39;6.08;;;3.83;;
66923;SDS011;53835;47.984;7.844;2022-08-30T14:10:07;6.60;;;4.00;;
66923;SDS011;53835;47.984;7.844;2022-08-30T14:12:34;4.85;;;3.30;;
66923;SDS011;53835;47.984;7.844;2022-08-30T14:15:01;6.50;;;4.20;;
66923;SDS011;53835;47.984;7.844;2022-08-30T14:17:29;5.85;;;3.62;;
66923;SDS011;53835;47.984;7.844;2022-08-30T14:19:58;5.60;;;3.87;;
66923;SDS011;53835;47.984;7.844;2022-08-30T14:22:26;6.35;;;3.62;;
66923;SDS011;53835;47.984;7.844;2022-08-30T14:24:53;4.97;;;3.60;;
66923;SDS011;53835;47.984;7.844;2022-08-30T14:27:21;5.95;;;3.65;;
66923;SDS011;53835;47.984;7.844;2022-08-30T14:29:48;3.77;;;3.40;;
66923;SDS011;53835;47.984;7.844;2022-08-30T14:32:15;3.85;;;3.50;;
66923;SDS011;53835;47.984;7.844;2022-08-30T14:34:42;4.28;;;3.87;;
66923;SDS011;53835;47.984;7.844;2022-08-30T14:37:10;5.25;;;3.75;;
66923;SDS011;53835;47.984;7.844;2022-08-30T14:39:37;4.17;;;3.77;;
66923;SDS011;53835;47.984;7.844;2022-08-30T14:42:05;4.22;;;3.45;;
66923;SDS011;53835;47.984;7.844;2022-08-30T14:44:32;5.35;;;3.98;;
66923;SDS011;53835;47.984;7.844;2022-08-30T14:46:59;5.70;;;4.05;;
66923;SDS011;53835;47.984;7.844;2022-08-30T14:49:27;4.45;;;4.00;;
66923;SDS011;53835;47.984;7.844;2022-08-30T14:51:54;4.22;;;3.83;;
66923;SDS011;53835;47.984;7.844;2022-08-30T14:54:27;5.15;;;4.33;;
66923;SDS011;53835;47.984;7.844;2022-08-30T14:56:50;4.28;;;3.90;;
66923;SDS011;53835;47.984;7.844;2022-08-30T14:59:17;6.65;;;4.10;;
66923;SDS011;53835;47.984;7.844;2022-08-30T15:01:45;4.55;;;3.90;;
66923;SDS011;53835;47.984;7.844;2022-08-30T15:04:12;4.37;;;4.00;;
66923;SDS011;53835;47.984;7.844;2022-08-30T15:06:41;6.87;;;4.40;;
66923;SDS011;53835;47.984;7.844;2022-08-30T15:09:09;6.55;;;4.35;;
66923;SDS011;53835;47.984;7.844;2022-08-30T15:11:37;5.22;;;4.35;;
66923;SDS011;53835;47.984;7.844;2022-08-30T15:14:05;4.83;;;4.37;;
66923;SDS011;53835;47.984;7.844;2022-08-30T15:16:33;4.80;;;4.22;;
66923;SDS011;53835;47.984;7.844;2022-08-30T15:19:00;5.67;;;4.60;;
66923;SDS011;53835;47.984;7.844;2022-08-30T15:21:29;4.95;;;4.12;;
66923;SDS011;53835;47.984;7.844;2022-08-30T15:23:57;4.75;;;3.92;;
66923;SDS011;53835;47.984;7.844;2022-08-30T15:26:24;7.67;;;4.42;;
66923;SDS011;53835;47.984;7.844;2022-08-30T15:28:52;5.12;;;4.10;;
66923;SDS011;53835;47.984;7.844;2022-08-30T15:31:21;6.75;;;4.25;;
66923;SDS011;53835;47.984;7.844;2022-08-30T15:33:48;6.78;;;4.35;;
66923;SDS011;53835;47.984;7.844;2022-08-30T15:36:16;6.80;;;4.10;;
66923;SDS011;53835;47.984;7.844;2022-08-30T15:38:43;6.62;;;4.15;;
66923;SDS011;53835;47.984;7.844;2022-08-30T15:41:11;6.45;;;4.00;;
66923;SDS011;53835;47.984;7.844;2022-08-30T15:43:39;5.80;;;4.50;;
66923;SDS011;53835;47.984;7.844;2022-08-30T15:46:15;5.53;;;4.35;;
66923;SDS011;53835;47.984;7.844;2022-08-30T15:48:38;7.72;;;4.33;;
66923;SDS011;53835;47.984;7.844;2022-08-30T15:51:05;7.10;;;4.22;;
66923;SDS011;53835;47.984;7.844;2022-08-30T15:53:33;7.95;;;4.03;;
66923;SDS011;53835;47.984;7.844;2022-08-30T15:56:00;5.15;;;4.10;;
66923;SDS011;53835;47.984;7.844;2022-08-30T15:58:28;8.18;;;4.37;;
66923;SDS011;53835;47.984;7.844;2022-08-30T16:00:55;8.50;;;4.10;;
66923;SDS011;53835;47.984;7.844;2022-08-30T16:03:22;5.47;;;4.20;;